Weather reports worldwide

Advertisment
Torino Venaria, Italy (16060): temperature & dewpoint: 12.10.2018 19:00:00 - 18.10.2018 19:00:00 (CEST)Torino Venaria, Italy (16060): wind speed: 12.10.2018 19:00:00 - 18.10.2018 19:00:00 (CEST)Torino Venaria, Italy (16060): wind direction: 12.10.2018 19:00:00 - 18.10.2018 19:00:00 (CEST)Torino Venaria, Italy (16060): reduced air pressure: 12.10.2018 19:00:00 - 18.10.2018 19:00:00 (CEST)Torino Venaria, Italy (16060): precipitation: 12.10.2018 19:00:00 - 18.10.2018 19:00:00 (CEST)
Date & Time tt [°C] td [°C] ff [km/h] ff [kn] dd ppp [hPa] rr [mm]
18.10.2018 19:00:00 - - - - - - -
18.10.2018 18:00:00 20,0 13,1 8 4 SSW 1013,0 -
18.10.2018 17:00:00 21,8 13,9 4 2 WSW 1012,9 -
18.10.2018 16:00:00 21,7 13,5 4 2 WSW 1013,2 -
18.10.2018 15:00:00 20,4 13,3 5 3 SW 1013,6 -
18.10.2018 14:00:00 19,4 13,3 11 6 SSW 1014,3 0,0
18.10.2018 13:00:00 19,7 13,8 5 3 SSE 1014,7 -
18.10.2018 12:00:00 18,0 17,8 4 2 S 1015,1 -
18.10.2018 11:00:00 14,6 14,5 2 1 SSE 1015,9 -
18.10.2018 10:00:00 11,5 11,5 2 1 WNW 1016,4 -
18.10.2018 09:00:00 9,5 9,5 4 2 WNW 1016,4 -
18.10.2018 08:00:00 9,4 9,4 0 0 N 1015,7 -
18.10.2018 07:00:00 9,4 9,4 4 2 NW 1015,8 -
18.10.2018 06:00:00 9,9 9,9 4 2 WNW 1015,7 -
18.10.2018 05:00:00 12,0 12,0 0 0 N 1015,7 -
18.10.2018 04:00:00 12,3 12,3 2 1 NNW 1016,0 -
18.10.2018 03:00:00 11,8 11,8 0 0 N 1016,6 -
18.10.2018 02:00:00 13,2 13,1 2 1 NNW 1016,7 0,0
18.10.2018 01:00:00 14,3 14,2 0 0 N 1017,0 -
18.10.2018 00:00:00 14,6 14,5 2 1 S 1017,2 -
17.10.2018 23:00:00 14,6 14,5 4 2 SW 1017,1 -
17.10.2018 22:00:00 14,8 14,7 8 4 SSW 1017,2 -
17.10.2018 21:00:00 15,1 15,0 8 4 S 1016,9 -
17.10.2018 20:00:00 15,9 15,0 5 3 S 1016,5 0,0
17.10.2018 19:00:00 16,5 14,3 2 1 WSW 1016,1 -
17.10.2018 18:00:00 17,2 13,4 8 4 SSW 1015,9 -
17.10.2018 17:00:00 18,5 13,5 4 2 NNW 1015,8 -
17.10.2018 16:00:00 19,3 13,4 4 2 W 1015,5 -
17.10.2018 15:00:00 19,1 14,1 4 2 NNW 1016,0 -
17.10.2018 14:00:00 17,4 12,7 4 2 WNW 1016,7 0,0
17.10.2018 13:00:00 16,8 12,9 4 2 ESE 1017,3 -
17.10.2018 12:00:00 16,0 14,1 2 1 ESE 1018,0 -
17.10.2018 11:00:00 15,0 14,9 2 1 NW 1018,1 -
17.10.2018 10:00:00 13,9 13,8 0 0 N 1018,4 -
17.10.2018 09:00:00 13,1 13,0 0 0 N 1018,4 -
17.10.2018 08:00:00 12,9 12,8 4 2 NNW 1018,0 0,0
17.10.2018 07:00:00 13,0 12,9 2 1 WSW 1018,2 -
17.10.2018 06:00:00 13,1 13,0 0 0 N 1018,2 -
17.10.2018 05:00:00 13,2 13,1 2 1 WNW 1018,2 -
17.10.2018 04:00:00 13,4 13,3 2 1 NNW 1018,5 -
17.10.2018 03:00:00 13,6 13,5 4 2 WNW 1018,7 -
17.10.2018 02:00:00 13,7 13,6 0 0 N 1018,6 0,0
17.10.2018 01:00:00 13,8 13,7 2 1 W 1018,9 -
17.10.2018 00:00:00 14,1 14,0 4 2 NW 1019,3 -
16.10.2018 23:00:00 14,4 14,3 2 1 WNW 1019,5 -
16.10.2018 22:00:00 15,0 14,9 4 2 WNW 1019,4 -
16.10.2018 21:00:00 15,7 14,5 4 2 WNW 1019,4 -
16.10.2018 20:00:00 15,9 14,2 5 3 SSW 1019,0 -
16.10.2018 19:00:00 16,7 13,0 8 4 SSW 1018,4 -
16.10.2018 18:00:00 18,3 12,9 2 1 NW 1018,1 -
16.10.2018 17:00:00 18,6 12,9 4 2 N 1018,1 -
16.10.2018 16:00:00 19,0 13,3 4 2 WNW 1018,1 -
16.10.2018 15:00:00 19,2 13,5 4 2 W 1018,3 -
16.10.2018 14:00:00 18,2 14,2 5 3 W 1018,8 -
16.10.2018 13:00:00 17,0 15,3 4 2 NW 1019,2 -
16.10.2018 12:00:00 15,4 15,3 4 2 W 1019,8 -
16.10.2018 11:00:00 14,0 13,9 2 1 NW 1019,7 -
16.10.2018 10:00:00 13,8 13,7 2 1 NNW 1019,6 -
16.10.2018 09:00:00 13,1 13,0 4 2 NW 1019,3 -
16.10.2018 08:00:00 12,8 12,8 0 0 N 1018,7 0,0
16.10.2018 07:00:00 12,9 12,8 4 2 NW 1018,6 -
16.10.2018 06:00:00 12,9 12,8 2 1 WNW 1018,4 -
16.10.2018 05:00:00 13,0 12,9 2 1 NW 1018,3 -
16.10.2018 04:00:00 13,0 12,9 5 3 WNW 1018,5 -
16.10.2018 03:00:00 13,2 13,1 4 2 NNW 1018,5 -
16.10.2018 02:00:00 13,2 13,1 2 1 NW 1018,7 0,0
16.10.2018 01:00:00 13,0 12,9 4 2 SW 1018,7 -
16.10.2018 00:00:00 13,2 13,1 2 1 SSE 1018,9 -
15.10.2018 23:00:00 13,8 13,4 4 2 WNW 1018,5 -
15.10.2018 22:00:00 14,2 13,8 4 2 WNW 1018,4 -
15.10.2018 21:00:00 14,3 13,3 4 2 NW 1018,3 -
15.10.2018 20:00:00 14,7 11,6 4 2 WNW 1017,9 0,0
15.10.2018 19:00:00 15,7 11,0 2 1 NNW 1017,2 -
15.10.2018 18:00:00 18,1 11,6 2 1 NNE 1016,7 -
15.10.2018 17:00:00 18,6 10,9 4 2 NNE 1016,2 -
15.10.2018 16:00:00 18,4 11,2 2 1 NNE 1016,0 -
15.10.2018 15:00:00 17,8 10,8 4 2 NE 1016,3 -
15.10.2018 14:00:00 18,6 11,4 5 3 ENE 1016,6 0,0
15.10.2018 13:00:00 17,3 11,9 8 4 NNE 1017,3 -
15.10.2018 12:00:00 16,7 12,2 8 4 ENE 1017,4 -
15.10.2018 11:00:00 15,5 15,1 5 3 NE 1017,5 -
15.10.2018 10:00:00 13,4 13,3 0 0 N 1017,5 -
15.10.2018 09:00:00 12,3 12,3 0 0 N 1017,1 -
15.10.2018 08:00:00 11,9 11,9 2 1 N 1016,7 -
15.10.2018 07:00:00 11,7 11,7 11 6 WNW 1016,5 -
15.10.2018 06:00:00 11,7 11,7 4 2 WNW 1016,5 -
15.10.2018 05:00:00 11,1 11,1 4 2 WNW 1016,6 -
15.10.2018 04:00:00 10,5 10,5 2 1 N 1016,8 -
15.10.2018 03:00:00 9,8 9,8 2 1 W 1017,2 -
15.10.2018 02:00:00 9,1 9,1 5 3 WNW 1017,8 0,0
15.10.2018 01:00:00 8,5 8,5 2 1 NW 1018,0 -
15.10.2018 00:00:00 8,9 8,3 0 0 N 1018,2 -
14.10.2018 23:00:00 10,0 9,5 4 2 NW 1018,1 -
14.10.2018 22:00:00 10,8 10,3 4 2 NW 1017,8 -
14.10.2018 21:00:00 10,8 9,5 8 4 WNW 1017,6 -
14.10.2018 20:00:00 11,9 8,5 5 3 WNW 1017,2 0,0
14.10.2018 19:00:00 15,0 8,9 4 2 NW 1016,5 -
14.10.2018 18:00:00 18,5 10,5 2 1 N 1016,2 -
14.10.2018 17:00:00 18,9 10,1 5 3 NE 1016,4 -
14.10.2018 16:00:00 19,1 10,8 11 6 ENE 1016,5 -
14.10.2018 15:00:00 19,5 12,0 4 2 E 1016,9 -
14.10.2018 14:00:00 19,0 11,7 5 3 NNE 1017,8 0,0
14.10.2018 13:00:00 18,1 12,5 9 5 NE 1018,6 -
14.10.2018 12:00:00 17,2 13,2 8 4 NE 1019,2 -
14.10.2018 11:00:00 15,0 14,9 5 3 NE 1019,7 -
14.10.2018 10:00:00 13,1 13,0 2 1 N 1019,9 -
14.10.2018 09:00:00 10,6 10,6 2 1 NW 1019,9 -
14.10.2018 08:00:00 10,4 10,4 2 1 NNE 1019,4 0,0
14.10.2018 07:00:00 9,6 9,6 2 1 N 1019,7 -
14.10.2018 06:00:00 10,4 10,4 2 1 WNW 1019,8 -
14.10.2018 05:00:00 9,6 9,6 4 2 WNW 1020,1 -
14.10.2018 04:00:00 10,6 10,6 2 1 W 1020,2 -
14.10.2018 03:00:00 10,4 10,1 0 0 N 1020,4 -
14.10.2018 02:00:00 12,4 12,4 4 2 WNW 1020,4 0,0
14.10.2018 01:00:00 14,0 13,9 2 1 N 1020,4 -
14.10.2018 00:00:00 12,5 12,5 2 1 SSW 1020,9 -
13.10.2018 23:00:00 13,5 13,4 2 1 WNW 1020,9 -
13.10.2018 22:00:00 14,6 14,2 4 2 NW 1020,7 -
13.10.2018 21:00:00 14,6 13,1 5 3 NW 1020,5 -
13.10.2018 20:00:00 15,8 11,1 4 2 NW 1020,2 0,0
13.10.2018 19:00:00 19,1 12,6 4 2 NNE 1019,4 -
13.10.2018 18:00:00 20,8 12,9 5 3 NE 1019,4 -
13.10.2018 17:00:00 21,6 13,7 5 3 E 1019,5 -
13.10.2018 16:00:00 21,3 13,4 5 3 ENE 1020,1 -
13.10.2018 15:00:00 21,1 14,2 5 3 ENE 1020,5 -
13.10.2018 14:00:00 21,3 13,9 4 2 NE 1021,2 -
13.10.2018 13:00:00 20,8 14,4 2 1 SW 1021,9 -
13.10.2018 12:00:00 19,0 15,2 2 1 SW 1022,6 -
13.10.2018 11:00:00 16,8 16,7 2 1 ESE 1023,0 -
13.10.2018 10:00:00 12,8 12,8 0 0 N 1023,4 -
13.10.2018 09:00:00 9,3 9,3 4 2 WNW 1023,9 -
13.10.2018 08:00:00 7,4 7,4 0 0 N 1023,7 0,0
13.10.2018 07:00:00 7,7 7,7 2 1 WNW 1023,8 -
13.10.2018 06:00:00 8,6 8,6 4 2 WNW 1023,7 -
13.10.2018 05:00:00 8,3 8,3 4 2 WNW 1024,0 -
13.10.2018 04:00:00 9,3 9,3 4 2 NW 1024,1 -
13.10.2018 03:00:00 10,3 10,3 4 2 NW 1024,3 -
13.10.2018 02:00:00 10,0 10,0 5 3 WNW 1024,5 0,0
13.10.2018 01:00:00 10,5 10,5 4 2 WNW 1024,6 -
13.10.2018 00:00:00 10,7 10,5 4 2 W 1024,8 -
12.10.2018 23:00:00 11,5 11,5 2 1 E 1024,7 -
12.10.2018 22:00:00 12,6 12,6 2 1 NW 1024,4 -
12.10.2018 21:00:00 13,2 12,4 5 3 WNW 1024,5 -
12.10.2018 20:00:00 15,6 12,3 5 3 WNW 1024,0 0,0
12.10.2018 19:00:00 18,6 12,3 2 1 N 1023,1 -

tt = temperature
td = dewpoint
ff = wind speed
dd = wind direction
ppp = reduced air pressure
rr = precipitation

Next stations